Time;durP1;ratioP1;P1;durP2;ratioP2;P2;SDS_P1;SDS_P2;PMS_P1;PMS_P2;Temp;Humidity;BMP_temperature;BMP_pressure;BME280_temperature;BME280_humidity;BME280_pressure;Samples;Min_cycle;Max_cycle;Signal;HPM_P1;HPM_P2
2023/07/16 00:00:24;;;;;;;23.08;9.75;;;15.90;99.90;;;15.37;100.00;100976.69;3979338;29;20027;-76
2023/07/16 00:02:25;;;;;;;24.30;9.02;;;15.90;99.90;;;15.33;100.00;100962.09;3995292;29;20035;-76
2023/07/16 00:04:25;;;;;;;25.67;9.48;;;15.90;99.90;;;15.34;100.00;100969.06;3979341;29;20038;-76
2023/07/16 00:06:26;;;;;;;25.67;8.80;;;15.90;99.90;;;15.34;100.00;100970.91;3995363;29;20038;-76
2023/07/16 00:08:27;;;;;;;24.38;9.23;;;15.90;99.90;;;15.30;100.00;100970.44;3990417;29;20046;-76
2023/07/16 00:10:28;;;;;;;22.73;8.88;;;15.90;99.90;;;15.31;100.00;100971.25;3983800;29;20186;-76
2023/07/16 00:12:29;;;;;;;23.15;8.65;;;15.90;99.90;;;15.29;100.00;100979.41;3995643;29;20034;-76
2023/07/16 00:14:30;;;;;;;21.55;9.48;;;15.90;99.90;;;15.27;100.00;100977.94;3990551;29;20031;-76
2023/07/16 00:16:31;;;;;;;27.17;8.80;;;15.80;99.90;;;15.26;100.00;100974.44;3986510;29;20031;-76
2023/07/16 00:18:32;;;;;;;20.40;9.60;;;15.80;99.90;;;15.25;100.00;100980.78;3957299;30;20035;-76
2023/07/16 00:20:33;;;;;;;24.50;9.38;;;15.80;99.90;;;15.26;100.00;100981.63;3975022;29;20039;-76
2023/07/16 00:22:34;;;;;;;23.52;8.10;;;15.80;99.90;;;15.28;100.00;100968.97;3985091;29;20054;-76
2023/07/16 00:24:35;;;;;;;20.38;8.40;;;15.80;99.90;;;15.22;100.00;100981.16;3952065;30;20187;-76
2023/07/16 00:26:36;;;;;;;24.25;8.60;;;15.80;99.90;;;15.18;100.00;100971.88;3981350;29;20039;-76
2023/07/16 00:28:36;;;;;;;22.60;8.35;;;15.80;99.90;;;15.15;100.00;100972.22;3971456;29;20019;-76
2023/07/16 00:30:37;;;;;;;23.00;8.65;;;15.80;99.90;;;15.18;100.00;100977.19;3964697;30;20043;-76
2023/07/16 00:32:39;;;;;;;22.75;8.07;;;15.70;99.90;;;15.19;100.00;100972.69;3964869;30;20108;-76
2023/07/16 00:34:40;;;;;;;17.30;8.57;;;15.80;99.90;;;15.29;100.00;100974.06;3966942;30;20083;-76
2023/07/16 00:36:41;;;;;;;19.75;8.70;;;15.90;99.90;;;15.43;100.00;100983.94;3983174;29;20027;-76
2023/07/16 00:38:42;;;;;;;25.00;9.05;;;16.00;99.90;;;15.57;100.00;100981.47;3966828;30;20032;-76
2023/07/16 00:40:43;;;;;;;22.73;9.50;;;16.10;99.90;;;15.64;100.00;100985.06;3982730;29;20110;-76
2023/07/16 00:42:44;;;;;;;24.20;8.52;;;16.10;99.90;;;15.68;100.00;100979.19;3983017;29;20034;-76
2023/07/16 00:44:45;;;;;;;21.20;7.55;;;16.20;99.90;;;15.69;100.00;100990.66;3972370;29;20042;-76
2023/07/16 00:46:46;;;;;;;22.70;7.90;;;16.20;99.90;;;15.65;100.00;100981.41;3966755;30;20059;-76
2023/07/16 00:48:47;;;;;;;17.52;7.22;;;16.20;99.90;;;15.52;100.00;100978.56;3982810;29;20502;-76
2023/07/16 00:50:48;;;;;;;20.58;8.38;;;16.10;99.90;;;15.48;100.00;100978.09;3961877;30;20038;-76
2023/07/16 00:52:49;;;;;;;23.75;9.10;;;16.10;99.90;;;15.33;100.00;100978.03;3982885;29;20092;-76
2023/07/16 00:54:50;;;;;;;27.83;9.80;;;15.90;99.90;;;15.24;100.00;100981.78;3982851;29;20026;-76
2023/07/16 00:56:51;;;;;;;25.08;9.25;;;15.80;99.90;;;15.18;100.00;100986.97;3974784;29;20110;-76
2023/07/16 00:58:52;;;;;;;20.98;8.25;;;15.70;99.90;;;15.10;100.00;100985.22;3982392;29;20027;-76
2023/07/16 01:00:53;;;;;;;20.90;8.93;;;15.70;99.90;;;15.13;100.00;100982.22;3974237;29;20030;-76
2023/07/16 01:02:54;;;;;;;22.17;8.70;;;15.70;99.90;;;15.13;100.00;100987.53;3982470;29;20141;-76
2023/07/16 01:04:55;;;;;;;26.83;8.80;;;15.70;99.90;;;15.22;100.00;100991.78;3981681;29;20023;-76
2023/07/16 01:07:00;;;;;;;24.92;8.75;;;15.70;99.90;;;15.20;100.00;100987.66;3975584;29;20042;-76
2023/07/16 01:09:29;;;;;;;23.67;8.30;;;15.80;99.90;;;15.24;100.00;100980.94;3966852;29;20058;-76
2023/07/16 01:11:30;;;;;;;26.63;9.82;;;15.80;99.90;;;15.23;100.00;100980.13;3979969;29;20504;-76
2023/07/16 01:13:32;;;;;;;26.10;8.95;;;15.80;99.90;;;15.22;100.00;100978.47;3968114;29;20023;-76
2023/07/16 01:15:33;;;;;;;28.95;9.77;;;15.80;99.90;;;15.20;100.00;100975.16;3981275;29;20053;-76
2023/07/16 01:17:34;;;;;;;22.10;9.30;;;15.70;99.90;;;15.14;100.00;100975.06;3962592;30;20028;-76
2023/07/16 01:19:35;;;;;;;26.95;9.65;;;15.70;99.90;;;15.08;100.00;100981.09;3982319;29;20030;-76
2023/07/16 01:22:33;;;;;;;26.70;9.45;;;15.60;99.90;;;14.93;100.00;100978.41;3962740;30;20036;-76
2023/07/16 01:24:36;;;;;;;20.13;8.88;;;15.50;99.90;;;14.85;100.00;100975.81;3977807;29;20096;-76
2023/07/16 01:27:09;;;;;;;23.90;9.65;;;15.50;99.90;;;14.85;100.00;100975.81;3961261;30;20122;-76
2023/07/16 01:29:31;;;;;;;27.02;9.18;;;15.40;99.90;;;14.84;100.00;100974.97;3982254;29;20043;-76
2023/07/16 01:31:34;;;;;;;21.00;9.43;;;15.40;99.90;;;14.81;100.00;100980.63;3972279;29;20027;-76
2023/07/16 01:33:35;;;;;;;24.08;10.07;;;15.40;99.90;;;14.77;100.00;100974.03;3961730;29;20504;-76
2023/07/16 01:35:37;;;;;;;26.88;11.10;;;15.30;99.90;;;14.71;100.00;100968.63;3966196;30;20106;-77
2023/07/16 01:37:37;;;;;;;33.30;10.82;;;15.30;99.90;;;14.68;100.00;100963.66;3965044;29;20059;-77
2023/07/16 01:39:39;;;;;;;30.27;9.77;;;15.30;99.90;;;14.65;100.00;100972.81;3963614;30;20574;-76
2023/07/16 01:41:40;;;;;;;23.58;10.40;;;15.30;99.90;;;14.61;100.00;100976.81;3959050;30;20063;-76
2023/07/16 01:43:40;;;;;;;28.23;9.77;;;15.20;99.90;;;14.57;100.00;100975.53;3982083;29;20018;-76
2023/07/16 01:45:42;;;;;;;21.50;10.50;;;15.20;99.90;;;14.57;100.00;100977.34;3981841;29;20407;-76
2023/07/16 01:48:30;;;;;;;28.10;11.10;;;15.10;99.90;;;14.54;100.00;100973.22;3965916;30;20035;-76
2023/07/16 01:50:31;;;;;;;25.85;11.00;;;15.10;99.90;;;14.53;100.00;100970.72;3968162;29;20051;-76
2023/07/16 01:52:31;;;;;;;23.38;9.45;;;15.10;99.90;;;14.56;100.00;100960.59;3951142;30;20029;-76
2023/07/16 01:54:32;;;;;;;28.20;11.65;;;15.20;99.90;;;14.67;100.00;100970.78;3976764;29;20092;-76
2023/07/16 01:56:33;;;;;;;28.88;11.77;;;15.20;99.90;;;14.72;100.00;100971.09;3980643;29;20395;-76
2023/07/16 01:58:34;;;;;;;28.48;10.23;;;15.30;99.90;;;14.79;100.00;100972.03;3981809;29;20092;-76
2023/07/16 02:00:36;;;;;;;26.52;9.45;;;15.30;99.90;;;14.78;100.00;100974.88;3981819;29;20537;-76
2023/07/16 02:02:37;;;;;;;26.67;9.82;;;15.30;99.90;;;14.73;100.00;100977.22;3981867;29;20042;-76
2023/07/16 02:04:38;;;;;;;21.75;9.85;;;15.30;99.90;;;14.71;100.00;100973.91;3965754;30;20028;-76
2023/07/16 02:06:38;;;;;;;28.30;11.43;;;15.20;99.90;;;14.66;100.00;100978.94;3965474;30;20423;-76
2023/07/16 02:08:39;;;;;;;28.40;11.10;;;15.20;99.90;;;14.60;100.00;100967.22;3982056;29;20027;-76
2023/07/16 02:10:40;;;;;;;21.88;10.85;;;15.20;99.90;;;14.60;100.00;100971.69;3981656;29;20034;-76
2023/07/16 02:12:41;;;;;;;32.95;10.77;;;15.20;99.90;;;14.61;100.00;100974.16;3981655;29;20035;-76
2023/07/16 02:14:42;;;;;;;24.70;11.18;;;15.20;99.90;;;14.60;100.00;100982.31;3965365;30;20080;-76
2023/07/16 02:16:43;;;;;;;30.67;12.15;;;15.20;99.90;;;14.62;100.00;100969.66;3973757;29;20427;-76
2023/07/16 02:18:44;;;;;;;35.83;11.55;;;15.20;99.90;;;14.75;100.00;100969.91;3960349;30;20106;-76
2023/07/16 02:20:45;;;;;;;28.10;12.07;;;15.30;99.90;;;14.86;100.00;100972.16;3975474;29;20413;-76
2023/07/16 02:22:45;;;;;;;28.50;11.43;;;15.40;99.90;;;14.93;100.00;100973.09;3975640;29;20094;-76
2023/07/16 02:24:46;;;;;;;27.23;10.27;;;15.40;99.90;;;15.00;100.00;100982.00;3977027;29;20557;-76
2023/07/16 02:26:47;;;;;;;22.63;11.02;;;15.50;99.90;;;15.00;100.00;100979.34;3971074;29;20023;-76
2023/07/16 02:28:48;;;;;;;24.23;10.27;;;15.50;99.90;;;14.94;100.00;100967.59;3996569;29;20034;-76
2023/07/16 02:30:50;;;;;;;25.08;11.07;;;15.50;99.90;;;14.95;100.00;100973.75;3979540;29;20492;-76
2023/07/16 02:32:51;;;;;;;24.98;11.35;;;15.40;99.90;;;14.87;100.00;100971.16;3995621;29;20018;-76
2023/07/16 02:34:52;;;;;;;30.38;13.10;;;15.40;99.90;;;14.90;100.00;100981.44;3994077;29;20027;-76
2023/07/16 02:36:53;;;;;;;29.80;12.82;;;15.40;99.90;;;14.88;100.00;100965.66;3996489;29;20042;-76
2023/07/16 02:38:54;;;;;;;28.77;10.98;;;15.40;99.90;;;14.89;100.00;100977.94;3996459;29;20532;-76
2023/07/16 02:40:55;;;;;;;28.73;11.75;;;15.40;99.90;;;14.85;100.00;100959.88;3996202;29;20080;-76
2023/07/16 02:42:56;;;;;;;21.30;10.38;;;15.40;99.90;;;15.00;100.00;100968.72;3980094;29;20125;-76
2023/07/16 02:44:56;;;;;;;24.88;10.88;;;15.50;99.90;;;15.04;100.00;100975.31;3980213;29;20031;-76
2023/07/16 02:46:57;;;;;;;27.33;11.00;;;15.60;99.90;;;15.06;100.00;100970.66;3996012;29;20452;-76
2023/07/16 02:48:58;;;;;;;27.35;11.70;;;15.60;99.90;;;15.15;100.00;100969.56;3984378;29;20030;-76
2023/07/16 02:50:59;;;;;;;24.23;11.27;;;15.70;99.90;;;15.22;100.00;100967.84;3972896;29;20042;-76
2023/07/16 02:53:00;;;;;;;29.85;11.18;;;15.70;99.90;;;15.24;100.00;100957.84;3996275;29;20038;-76
2023/07/16 02:55:00;;;;;;;24.90;11.77;;;15.80;99.90;;;15.28;100.00;100959.16;3991057;29;20096;-76
2023/07/16 02:57:02;;;;;;;33.15;12.75;;;15.80;99.90;;;15.28;100.00;100956.50;3978477;29;20067;-76
2023/07/16 02:59:03;;;;;;;25.35;11.75;;;15.90;99.90;;;15.27;100.00;100954.00;3964422;30;20035;-76
2023/07/16 03:01:03;;;;;;;23.65;12.88;;;15.90;99.90;;;15.30;100.00;100958.97;3988220;29;20054;-76
2023/07/16 03:03:04;;;;;;;22.70;12.93;;;15.90;99.90;;;15.27;100.00;100957.50;3994777;29;20041;-76
2023/07/16 03:05:05;;;;;;;20.20;10.88;;;15.80;99.90;;;15.23;100.00;100960.72;3972990;29;20027;-76
2023/07/16 03:07:06;;;;;;;22.58;10.50;;;15.80;99.90;;;15.23;100.00;100956.19;3976775;29;20035;-76
2023/07/16 03:09:07;;;;;;;28.20;12.70;;;15.80;99.90;;;15.21;100.00;100957.38;3987460;29;20089;-76
2023/07/16 03:11:08;;;;;;;27.60;12.82;;;15.80;99.90;;;15.25;100.00;100962.19;3979294;29;20023;-76
2023/07/16 03:13:09;;;;;;;28.02;12.90;;;15.80;99.90;;;15.27;100.00;100960.16;3993549;29;20038;-76
2023/07/16 03:15:10;;;;;;;25.83;11.60;;;15.80;99.90;;;15.31;100.00;100963.28;3968805;29;20032;-76
2023/07/16 03:17:11;;;;;;;28.42;12.65;;;15.80;99.90;;;15.33;100.00;100967.41;3978738;29;20407;-76
2023/07/16 03:19:12;;;;;;;27.50;12.45;;;15.90;99.90;;;15.36;100.00;100968.88;3995886;29;20046;-76
2023/07/16 03:21:13;;;;;;;25.48;13.50;;;15.90;99.90;;;15.22;100.00;100946.59;3995743;29;20495;-76
2023/07/16 03:23:14;;;;;;;25.92;11.75;;;15.90;99.90;;;15.32;100.00;100965.75;3995682;29;20058;-76
2023/07/16 03:25:14;;;;;;;31.98;14.00;;;15.90;99.90;;;15.31;100.00;100966.78;3994613;29;20582;-76
2023/07/16 03:27:15;;;;;;;29.55;14.05;;;15.90;99.90;;;15.25;100.00;100967.50;3974402;29;20046;-76
2023/07/16 03:29:16;;;;;;;25.13;11.63;;;15.90;99.90;;;15.23;100.00;100969.50;3976961;29;20031;-76
2023/07/16 03:31:17;;;;;;;27.30;12.25;;;15.80;99.90;;;15.19;100.00;100973.53;3983589;29;20034;-76
2023/07/16 03:33:18;;;;;;;25.55;12.45;;;15.80;99.90;;;15.19;100.00;100978.84;3995644;29;20027;-76
2023/07/16 03:35:19;;;;;;;28.50;12.02;;;15.80;99.90;;;15.17;100.00;100980.03;3992515;29;20045;-76
2023/07/16 03:37:20;;;;;;;31.00;13.43;;;15.70;99.90;;;15.16;100.00;100984.53;3979263;29;20041;-76
2023/07/16 03:39:20;;;;;;;24.92;12.93;;;15.70;99.90;;;15.11;100.00;100980.75;3995637;29;20038;-76
2023/07/16 03:41:21;;;;;;;21.88;12.00;;;15.70;99.90;;;15.07;100.00;100987.41;3995593;29;20038;-76
2023/07/16 03:43:22;;;;;;;29.67;13.32;;;15.60;99.90;;;14.98;100.00;100989.31;3979352;29;20039;-76
2023/07/16 03:45:24;;;;;;;22.70;11.98;;;15.60;99.90;;;14.85;100.00;100981.09;3995297;29;20030;-76
2023/07/16 03:47:25;;;;;;;21.20;12.27;;;15.50;99.90;;;14.83;100.00;100988.44;3995288;29;20087;-76
2023/07/16 03:49:26;;;;;;;26.00;14.02;;;15.40;99.90;;;14.76;100.00;100990.13;3990836;29;20440;-76
2023/07/16 03:51:26;;;;;;;29.95;14.80;;;15.30;99.90;;;14.70;100.00;100982.88;3972300;29;20031;-76
2023/07/16 03:53:27;;;;;;;31.77;14.73;;;15.30;99.90;;;14.64;100.00;100995.03;3973416;29;20031;-76
2023/07/16 03:55:29;;;;;;;35.95;14.30;;;15.20;99.90;;;14.61;100.00;100990.09;3970460;29;20046;-76
2023/07/16 03:57:30;;;;;;;27.45;13.45;;;15.20;99.90;;;14.61;100.00;100991.91;3991437;29;20483;-76
2023/07/16 03:59:30;;;;;;;31.90;13.88;;;15.20;99.90;;;14.52;100.00;100985.00;3986404;29;20031;-76
2023/07/16 04:01:31;;;;;;;33.95;13.20;;;15.10;99.90;;;14.47;100.00;100984.69;3989604;29;20487;-76
2023/07/16 04:03:32;;;;;;;30.40;12.73;;;15.10;99.90;;;14.44;100.00;100996.50;3974172;29;20432;-76
2023/07/16 04:05:33;;;;;;;30.55;13.50;;;15.00;99.90;;;14.44;100.00;100993.84;3971970;29;20027;-76
2023/07/16 04:07:34;;;;;;;30.80;13.15;;;15.00;99.90;;;14.42;100.00;100992.38;3990655;29;20064;-76
2023/07/16 04:09:40;;;;;;;27.85;12.63;;;15.00;99.90;;;14.45;100.00;101005.28;3974211;29;20023;-76
2023/07/16 04:11:41;;;;;;;22.63;11.95;;;15.00;99.90;;;14.39;100.00;100997.00;3993476;29;20033;-76
2023/07/16 04:13:42;;;;;;;26.75;15.25;;;15.00;99.90;;;14.33;100.00;100997.72;3994329;29;20031;-76
2023/07/16 04:15:43;;;;;;;27.38;13.52;;;14.90;99.90;;;14.32;100.00;101003.16;3975045;29;20501;-76
2023/07/16 04:17:44;;;;;;;23.75;13.32;;;14.90;99.90;;;14.28;100.00;101005.34;3992627;29;20564;-76
2023/07/16 04:19:45;;;;;;;33.03;13.07;;;14.90;99.90;;;14.28;100.00;101008.00;3991259;29;20035;-76
2023/07/16 04:21:46;;;;;;;29.13;14.50;;;14.80;99.90;;;14.27;100.00;101013.47;3991949;29;20041;-76
2023/07/16 04:23:46;;;;;;;30.20;14.25;;;14.80;99.90;;;14.16;100.00;101003.22;3993301;29;20030;-76
2023/07/16 04:25:51;;;;;;;28.35;14.10;;;14.80;99.90;;;14.16;100.00;101001.41;3990927;29;20019;-76
2023/07/16 04:27:52;;;;;;;28.40;13.32;;;14.80;99.90;;;14.13;100.00;101007.06;3977966;29;20027;-76
2023/07/16 04:29:53;;;;;;;27.92;13.95;;;14.80;99.90;;;14.13;100.00;101017.66;3991307;29;20023;-76
2023/07/16 04:31:54;;;;;;;30.00;14.30;;;14.70;99.90;;;14.12;100.00;101012.56;3990339;29;20023;-76
2023/07/16 04:33:55;;;;;;;27.88;13.23;;;14.70;99.90;;;14.07;100.00;100999.78;3991089;29;20039;-76
2023/07/16 04:35:56;;;;;;;28.35;13.95;;;14.70;99.90;;;14.16;100.00;101022.63;3992901;29;20102;-76
2023/07/16 04:37:57;;;;;;;29.45;14.60;;;14.70;99.90;;;14.14;100.00;101019.34;3974402;29;20030;-76
2023/07/16 04:39:57;;;;;;;25.50;12.77;;;14.70;99.90;;;14.14;100.00;101018.50;3990532;29;20023;-76
2023/07/16 04:41:58;;;;;;;35.70;15.35;;;14.70;99.90;;;14.18;100.00;101027.78;3977911;29;20031;-76
2023/07/16 04:43:59;;;;;;;35.55;13.40;;;14.70;99.90;;;14.08;100.00;101014.72;3987748;29;20045;-76
2023/07/16 04:46:00;;;;;;;31.20;12.93;;;14.80;99.90;;;14.17;100.00;101026.94;3990585;29;20065;-76
2023/07/16 04:48:01;;;;;;;29.67;13.65;;;14.80;99.90;;;14.16;100.00;101025.28;3993618;29;20399;-76
2023/07/16 04:50:02;;;;;;;25.80;13.93;;;14.80;99.90;;;14.20;100.00;101033.72;3977467;29;20030;-76
2023/07/16 04:52:03;;;;;;;31.27;13.05;;;14.70;99.90;;;14.20;100.00;101029.25;3989272;29;20034;-76
2023/07/16 04:54:04;;;;;;;31.05;14.10;;;14.80;99.90;;;14.21;100.00;101030.94;3988105;29;20143;-76
2023/07/16 04:56:14;;;;;;;36.85;13.38;;;14.80;99.90;;;14.26;100.00;101044.50;3966332;30;20063;-76
2023/07/16 04:58:15;;;;;;;32.35;14.15;;;14.80;99.90;;;14.25;100.00;101037.53;3990960;29;20030;-76
2023/07/16 05:00:16;;;;;;;22.48;12.57;;;14.80;99.90;;;14.24;100.00;101025.28;3978935;29;20035;-76
2023/07/16 05:02:17;;;;;;;31.40;12.40;;;14.80;99.90;;;14.28;100.00;101037.19;3988337;29;20082;-76
2023/07/16 05:04:17;;;;;;;28.80;13.02;;;14.90;99.90;;;14.32;100.00;101041.19;3975951;29;20042;-76
2023/07/16 05:06:18;;;;;;;29.95;13.27;;;14.90;99.90;;;14.29;100.00;101036.19;3991066;29;20034;-76
2023/07/16 05:08:19;;;;;;;29.92;13.35;;;14.90;99.90;;;14.39;100.00;101042.13;3977393;29;20096;-76
2023/07/16 05:10:20;;;;;;;25.90;12.02;;;14.90;99.90;;;14.41;100.00;101041.97;3974457;29;20031;-76
2023/07/16 05:12:21;;;;;;;26.50;12.95;;;14.90;99.90;;;14.40;100.00;101035.81;3989549;29;20023;-76
2023/07/16 05:14:22;;;;;;;23.88;11.90;;;14.90;99.90;;;14.38;100.00;101031.69;3992393;29;20038;-76
2023/07/16 05:16:23;;;;;;;28.95;14.30;;;14.90;99.90;;;14.40;100.00;101040.31;3974122;29;20089;-76
2023/07/16 05:18:24;;;;;;;32.47;13.63;;;14.90;99.90;;;14.39;100.00;101039.47;3992259;29;20440;-76
2023/07/16 05:20:24;;;;;;;27.45;12.45;;;14.90;99.90;;;14.44;100.00;101040.78;3976900;29;20117;-76
2023/07/16 05:22:25;;;;;;;31.20;14.45;;;14.90;99.90;;;14.45;100.00;101043.28;3976361;29;20054;-76
2023/07/16 05:24:26;;;;;;;30.48;14.00;;;15.00;99.90;;;14.45;100.00;101048.59;3987006;29;20440;-76
2023/07/16 05:26:27;;;;;;;23.73;11.88;;;15.00;99.90;;;14.50;100.00;101051.53;3985966;29;20023;-76
2023/07/16 05:28:28;;;;;;;26.13;13.23;;;15.00;99.90;;;14.53;100.00;101056.50;3993336;29;20034;-76
2023/07/16 05:30:29;;;;;;;29.20;13.00;;;15.00;99.90;;;14.59;100.00;101057.63;3973872;29;20024;-76
2023/07/16 05:32:30;;;;;;;27.02;12.90;;;15.10;99.90;;;14.62;100.00;101062.59;3992525;29;20046;-76
2023/07/16 05:34:31;;;;;;;29.40;12.25;;;15.10;99.90;;;14.65;100.00;101054.28;3993038;29;20041;-76
2023/07/16 05:36:32;;;;;;;27.55;14.18;;;15.20;99.90;;;14.75;100.00;101065.53;3974873;29;20047;-76
2023/07/16 05:38:33;;;;;;;28.98;11.88;;;15.20;99.90;;;14.77;100.00;101058.19;3990528;29;20459;-76
2023/07/16 05:40:33;;;;;;;26.10;11.50;;;15.30;99.90;;;14.85;100.00;101066.94;3974840;29;20039;-76
2023/07/16 05:42:35;;;;;;;23.13;11.85;;;15.30;99.90;;;14.89;100.00;101070.06;3993014;29;20504;-75
2023/07/16 05:44:36;;;;;;;31.05;12.75;;;15.30;99.90;;;14.90;100.00;101069.09;3987747;29;20034;-76
2023/07/16 05:46:37;;;;;;;29.88;13.23;;;15.30;99.90;;;14.85;100.00;101055.47;3965478;30;20435;-76
2023/07/16 05:48:38;;;;;;;34.97;13.68;;;15.40;99.90;;;15.00;100.00;101076.78;3993013;29;20045;-76
2023/07/16 05:50:38;;;;;;;22.38;12.07;;;15.40;99.90;;;15.06;100.00;101084.06;3990326;29;20155;-76
2023/07/16 05:52:39;;;;;;;25.85;11.45;;;15.50;99.90;;;15.13;100.00;101080.53;3993061;29;20407;-76
2023/07/16 05:54:40;;;;;;;31.35;13.30;;;15.60;99.90;;;15.17;100.00;101070.38;3974417;29;20031;-76
2023/07/16 05:56:41;;;;;;;25.00;11.25;;;15.60;99.90;;;15.28;100.00;101084.06;3991321;29;20038;-76
2023/07/16 05:58:42;;;;;;;22.70;12.57;;;15.60;99.90;;;15.32;100.00;101085.34;3991369;29;20034;-76
2023/07/16 06:00:43;;;;;;;24.63;11.52;;;15.70;99.90;;;15.36;100.00;101084.00;3970563;29;20027;-76
2023/07/16 06:02:44;;;;;;;31.67;12.90;;;15.70;99.90;;;15.33;100.00;101080.88;3992125;29;20086;-76
2023/07/16 06:04:45;;;;;;;25.50;11.68;;;15.80;99.90;;;15.38;100.00;101081.19;3973385;29;20038;-76
2023/07/16 06:06:46;;;;;;;21.70;11.93;;;15.80;99.90;;;15.41;100.00;101089.59;3976525;29;20038;-76
2023/07/16 06:08:46;;;;;;;24.20;11.35;;;15.90;99.90;;;15.47;100.00;101093.44;3990760;29;20546;-76
2023/07/16 06:10:48;;;;;;;24.05;13.27;;;15.90;99.90;;;15.51;100.00;101081.41;3974373;29;20028;-76
2023/07/16 06:12:49;;;;;;;24.33;11.45;;;15.90;99.90;;;15.62;100.00;101088.16;3991505;29;20023;-76
2023/07/16 06:14:50;;;;;;;25.75;11.68;;;16.00;99.90;;;15.68;100.00;101093.56;3992477;29;20033;-76
2023/07/16 06:16:50;;;;;;;28.20;12.35;;;16.10;99.90;;;15.75;100.00;101097.16;3987877;29;20584;-76
2023/07/16 06:18:51;;;;;;;21.67;13.07;;;16.20;99.90;;;15.87;100.00;101106.34;3975009;29;20430;-76
2023/07/16 06:20:54;;;;;;;19.25;11.00;;;16.20;99.90;;;15.98;100.00;101105.06;3990452;29;20096;-76
2023/07/16 06:22:55;;;;;;;24.13;12.02;;;16.40;99.90;;;16.07;100.00;101103.97;3988214;29;20117;-76
2023/07/16 06:24:56;;;;;;;25.20;12.18;;;16.40;99.90;;;16.14;100.00;101107.56;3972754;29;20550;-76
2023/07/16 06:26:57;;;;;;;21.60;11.38;;;16.50;99.90;;;16.22;100.00;101110.13;3989091;29;20037;-76
2023/07/16 06:28:58;;;;;;;19.88;12.05;;;16.50;99.90;;;16.26;100.00;101106.09;3976342;29;20023;-76
2023/07/16 06:30:58;;;;;;;18.02;9.93;;;16.60;99.90;;;16.38;100.00;101115.28;3990863;29;20030;-76
2023/07/16 06:32:59;;;;;;;24.27;11.43;;;16.70;99.90;;;16.45;100.00;101116.19;3959387;30;20061;-76
2023/07/16 06:35:00;;;;;;;24.42;11.73;;;16.80;99.90;;;16.49;100.00;101108.66;3990700;29;20441;-76
2023/07/16 06:37:01;;;;;;;20.27;10.30;;;16.90;99.90;;;16.54;100.00;101112.47;3973908;29;20064;-76
2023/07/16 06:39:04;;;;;;;21.58;10.27;;;16.90;99.90;;;16.69;100.00;101106.28;3972761;29;20036;-76
2023/07/16 06:41:06;;;;;;;21.15;10.63;;;17.00;99.90;;;16.87;100.00;101114.69;3973537;29;20073;-76
2023/07/16 06:43:06;;;;;;;24.05;10.70;;;17.10;99.90;;;16.97;100.00;101109.88;3975817;29;20031;-76
2023/07/16 06:45:08;;;;;;;16.95;9.85;;;17.30;99.90;;;17.08;100.00;101117.38;3987497;29;20026;-76
2023/07/16 06:47:09;;;;;;;26.90;12.45;;;17.30;99.90;;;17.15;100.00;101119.09;3987001;29;20098;-76
2023/07/16 06:49:10;;;;;;;22.63;9.80;;;17.40;99.90;;;17.16;100.00;101119.91;3989568;29;20084;-76
2023/07/16 06:51:11;;;;;;;24.95;11.52;;;17.50;99.90;;;17.26;100.00;101117.78;3986964;29;20035;-76
2023/07/16 06:53:12;;;;;;;18.80;10.88;;;17.50;99.90;;;17.38;100.00;101126.09;3990150;29;20034;-76
2023/07/16 06:55:13;;;;;;;18.05;9.38;;;17.60;99.90;;;17.42;100.00;101117.50;3973961;29;20027;-76
2023/07/16 06:57:14;;;;;;;20.25;9.13;;;17.70;99.90;;;17.46;100.00;101125.94;3975719;29;20039;-76
2023/07/16 06:59:15;;;;;;;23.60;10.13;;;17.70;99.90;;;17.49;100.00;101126.41;3988280;29;20176;-76
2023/07/16 07:01:16;;;;;;;19.08;9.57;;;17.80;99.90;;;17.59;100.00;101120.78;3988898;29;20034;-76
2023/07/16 07:03:16;;;;;;;26.63;10.48;;;17.90;99.90;;;17.59;100.00;101129.59;3969283;29;20093;-76
2023/07/16 07:05:17;;;;;;;27.85;9.98;;;17.90;99.90;;;17.61;100.00;101130.25;3991477;29;20026;-76
2023/07/16 07:07:18;;;;;;;19.15;9.38;;;18.00;99.90;;;17.67;100.00;101129.47;3975678;29;20103;-76
2023/07/16 07:09:19;;;;;;;22.58;9.00;;;18.00;99.90;;;17.82;100.00;101131.22;3989142;29;20035;-76
2023/07/16 07:11:20;;;;;;;23.45;10.15;;;18.10;99.90;;;17.95;100.00;101121.44;3971855;29;20118;-76
2023/07/16 07:13:21;;;;;;;24.08;9.07;;;18.40;99.90;;;18.39;100.00;101133.66;3960320;30;20027;-76
2023/07/16 07:15:22;;;;;;;17.48;8.00;;;18.60;99.90;;;18.81;100.00;101138.00;3991180;29;20155;-76
2023/07/16 07:17:23;;;;;;;22.55;8.15;;;19.00;99.90;;;19.08;100.00;101145.09;3972468;29;20058;-76
2023/07/16 07:19:24;;;;;;;24.20;9.43;;;19.30;99.90;;;18.98;100.00;101148.13;3988231;29;20030;-76
2023/07/16 07:21:25;;;;;;;20.85;8.52;;;19.30;99.90;;;18.72;100.00;101119.47;3975602;29;20062;-76
2023/07/16 07:23:26;;;;;;;15.38;8.15;;;19.30;99.90;;;18.64;100.00;101138.31;3991694;29;20042;-75
2023/07/16 07:25:26;;;;;;;18.70;7.90;;;19.10;99.90;;;18.59;100.00;101140.78;3988788;29;20030;-75
2023/07/16 07:27:27;;;;;;;25.98;8.63;;;19.00;99.90;;;18.40;100.00;101138.78;3990751;29;20042;-76
2023/07/16 07:29:28;;;;;;;17.60;8.25;;;18.90;99.90;;;18.32;100.00;101144.28;3982937;29;20030;-76
2023/07/16 07:31:29;;;;;;;22.27;8.10;;;18.80;99.90;;;18.24;100.00;101141.78;3959661;30;20038;-76
2023/07/16 07:33:32;;;;;;;15.32;7.80;;;18.70;99.90;;;18.24;100.00;101152.47;3976881;29;20031;-76
2023/07/16 07:35:33;;;;;;;21.92;8.93;;;18.70;99.90;;;18.30;100.00;101157.03;3989210;29;20030;-76
2023/07/16 07:37:33;;;;;;;19.65;8.60;;;18.70;99.90;;;18.33;100.00;101153.97;3989062;29;20035;-76
2023/07/16 07:39:34;;;;;;;19.15;7.57;;;18.70;99.90;;;18.45;100.00;101155.06;3977502;29;20031;-76
2023/07/16 07:41:35;;;;;;;17.20;8.65;;;18.70;99.90;;;18.48;100.00;101154.66;3987241;29;20026;-76
2023/07/16 07:43:36;;;;;;;16.35;7.30;;;18.80;99.90;;;18.65;100.00;101156.03;3990539;29;20030;-76
2023/07/16 07:45:37;;;;;;;31.83;9.82;;;18.90;99.90;;;18.85;100.00;101160.59;3989529;29;20093;-76
2023/07/16 07:47:38;;;;;;;21.13;8.82;;;19.00;99.90;;;19.02;100.00;101151.22;3970781;29;20492;-75
2023/07/16 07:49:39;;;;;;;17.58;7.13;;;19.10;99.90;;;19.14;100.00;101150.44;3957185;30;20073;-76
2023/07/16 07:51:39;;;;;;;19.02;8.77;;;19.30;99.90;;;19.10;100.00;101137.66;3973474;29;20524;-76
2023/07/16 07:53:40;;;;;;;16.33;7.55;;;19.40;99.90;;;19.26;100.00;101167.53;3991055;29;20023;-76
2023/07/16 07:55:41;;;;;;;17.17;7.38;;;19.50;99.90;;;19.33;100.00;101154.19;3990031;29;20035;-76
2023/07/16 07:57:42;;;;;;;14.95;6.43;;;19.60;99.90;;;19.56;100.00;101162.66;3986880;29;20026;-76
2023/07/16 07:59:43;;;;;;;14.18;6.68;;;19.80;99.90;;;19.70;100.00;101166.19;3989269;29;20094;-75
2023/07/16 08:01:44;;;;;;;14.75;6.82;;;19.90;99.90;;;19.93;100.00;101169.28;3991160;29;20368;-76
2023/07/16 08:03:44;;;;;;;16.85;7.15;;;20.10;99.90;;;20.08;100.00;101169.91;3991311;29;20049;-75
2023/07/16 08:05:49;;;;;;;11.07;6.68;;;20.30;99.90;;;20.21;100.00;101145.78;3972885;29;20507;-76
2023/07/16 08:07:51;;;;;;;15.85;5.97;;;20.40;99.90;;;20.30;100.00;101157.13;3973753;29;20039;-76
2023/07/16 08:09:52;;;;;;;12.48;6.10;;;20.60;99.90;;;20.36;100.00;101161.66;3957832;29;20055;-76
2023/07/16 08:11:53;;;;;;;16.60;6.82;;;20.70;99.90;;;20.44;97.52;101150.69;3975052;29;20051;-76